Time;durP1;ratioP1;P1;durP2;ratioP2;P2;SDS_P1;SDS_P2;PMS_P1;PMS_P2;Temp;Humidity;BMP_temperature;BMP_pressure;BME280_temperature;BME280_humidity;BME280_pressure;Samples;Min_cycle;Max_cycle;Signal;HPM_P1;HPM_P2
2022/01/19 00:00:09;;;;;;;4.17;3.77;;;;;;;0.92;100.00;98052.53;5050113;28;20473;-75
2022/01/19 00:02:37;;;;;;;5.80;3.70;;;;;;;0.54;100.00;97991.19;5050237;28;20441;-75
2022/01/19 00:05:05;;;;;;;4.63;3.80;;;;;;;0.74;100.00;98014.31;5050417;28;20441;-75
2022/01/19 00:07:32;;;;;;;8.77;4.50;;;;;;;0.66;100.00;97996.41;5050033;28;20865;-75
2022/01/19 00:10:05;;;;;;;8.67;5.87;;;;;;;0.84;100.00;98018.00;5033421;28;20499;-75
2022/01/19 00:12:32;;;;;;;8.93;7.30;;;;;;;0.74;100.00;97981.28;5033569;28;20442;-74
2022/01/19 00:14:58;;;;;;;15.10;8.73;;;;;;;0.92;100.00;97990.84;5050697;28;20880;-75
2022/01/19 00:17:25;;;;;;;10.70;6.20;;;;;;;0.77;100.00;97960.00;5050809;28;20492;-75
2022/01/19 00:19:52;;;;;;;28.10;15.27;;;;;;;0.69;100.00;97954.34;5054053;28;20468;-75
2022/01/19 00:22:19;;;;;;;52.30;28.80;;;;;;;0.80;100.00;97983.00;5055362;28;20494;-75
2022/01/19 00:24:45;;;;;;;53.73;31.00;;;;;;;0.39;100.00;97920.50;5037410;28;20447;-75
2022/01/19 00:27:12;;;;;;;20.53;15.37;;;;;;;0.82;100.00;97980.19;5055441;28;20881;-74
2022/01/19 00:29:39;;;;;;;7.60;6.20;;;;;;;0.56;100.00;97935.28;5055780;28;20549;-75
2022/01/19 00:32:06;;;;;;;5.10;3.93;;;;;;;0.78;100.00;97966.00;5054069;28;20926;-75
2022/01/19 00:34:32;;;;;;;4.30;4.00;;;;;;;0.42;100.00;97920.88;5054199;28;20453;-75
2022/01/19 00:36:59;;;;;;;4.83;4.23;;;;;;;0.60;100.00;97946.06;5036924;28;20461;-75
2022/01/19 00:39:31;;;;;;;5.37;4.00;;;;;;;0.55;100.00;97949.31;5053579;28;20551;-75
2022/01/19 00:41:58;;;;;;;6.50;4.07;;;;;;;0.44;100.00;97939.66;5037044;28;20434;-75
2022/01/19 00:44:25;;;;;;;5.07;4.60;;;;;;;0.57;100.00;97946.50;5055008;28;20521;-74
2022/01/19 00:46:52;;;;;;;3.40;3.10;;;;;;;0.52;100.00;97941.94;5054998;28;20464;-75
2022/01/19 00:49:19;;;;;;;3.87;3.57;;;;;;;0.46;100.00;97927.22;5053765;28;20580;-75
2022/01/19 00:51:45;;;;;;;4.20;3.77;;;;;;;0.69;100.00;97959.56;5054171;28;20440;-74
2022/01/19 00:54:12;;;;;;;4.20;3.80;;;;;;;0.72;100.00;97943.47;5053832;28;20872;-75
2022/01/19 00:56:40;;;;;;;2.87;2.67;;;;;;;0.71;100.00;97934.88;5053651;28;20831;-75
2022/01/19 00:59:10;;;;;;;4.33;3.93;;;;;;;0.36;100.00;97887.94;5054608;28;20480;-76
2022/01/19 01:01:36;;;;;;;4.63;3.23;;;;;;;0.50;100.00;97896.34;5054549;28;20465;-75
2022/01/19 01:04:03;;;;;;;4.00;3.60;;;;;;;0.69;100.00;97929.09;5055667;28;20455;-74
2022/01/19 01:06:31;;;;;;;3.83;3.53;;;;;;;0.63;100.00;97921.38;5055649;28;20895;-75
2022/01/19 01:08:58;;;;;;;3.90;3.40;;;;;;;0.60;100.00;97909.63;5038133;28;20992;-75
2022/01/19 01:11:35;;;;;;;5.40;3.23;;;;;;;0.67;100.00;97901.69;5055528;28;20471;-75
2022/01/19 01:16:57;;;;;;;2.73;2.53;;;;;;;1.06;100.00;97924.50;5060753;28;20436;-75
2022/01/19 01:19:24;;;;;;;2.13;2.03;;;;;;;0.75;100.00;97891.75;5036305;28;20863;-75
2022/01/19 01:21:51;;;;;;;3.67;2.83;;;;;;;0.70;100.00;97893.47;5052652;28;20441;-75
2022/01/19 01:24:18;;;;;;;3.50;3.20;;;;;;;0.81;100.00;97906.50;5036088;28;21031;-75
2022/01/19 01:26:45;;;;;;;2.80;2.50;;;;;;;0.57;100.00;97865.84;5036158;28;20453;-75
2022/01/19 01:29:12;;;;;;;6.73;3.23;;;;;;;0.57;100.00;97871.03;5051921;28;20484;-75
2022/01/19 01:31:38;;;;;;;2.70;2.50;;;;;;;0.67;100.00;97854.84;5052319;28;20499;-74
2022/01/19 01:34:05;;;;;;;2.10;2.00;;;;;;;0.66;100.00;97848.84;5053615;28;20436;-75
2022/01/19 01:36:32;;;;;;;2.20;2.00;;;;;;;0.64;100.00;97842.28;5035501;28;20451;-75
2022/01/19 01:38:58;;;;;;;2.23;2.00;;;;;;;0.90;100.00;97875.69;5035625;28;21022;-75
2022/01/19 01:41:25;;;;;;;2.83;2.40;;;;;;;0.56;100.00;97799.19;5052077;28;20444;-75
2022/01/19 01:44:03;;;;;;;2.40;2.23;;;;;;;0.50;100.00;97834.69;5051959;28;20956;-75
2022/01/19 01:46:42;;;;;;;2.60;2.40;;;;;;;0.67;100.00;97847.03;5051830;28;20525;-75
2022/01/19 01:49:16;;;;;;;2.30;2.10;;;;;;;0.60;100.00;97836.75;5052004;28;20483;-75
2022/01/19 01:54:29;;;;;;;2.40;2.20;;;;;;;0.64;100.00;97878.72;5051712;28;20428;-75
2022/01/19 01:56:56;;;;;;;2.67;2.47;;;;;;;0.47;100.00;97860.38;5051716;28;20449;-75
2022/01/19 01:59:23;;;;;;;2.03;1.93;;;;;;;0.79;100.00;97871.28;5051652;28;20441;-75
2022/01/19 02:01:57;;;;;;;2.93;2.07;;;;;;;0.73;100.00;97854.75;5035948;28;20462;-75
2022/01/19 02:04:25;;;;;;;2.13;2.03;;;;;;;0.64;100.00;97845.69;5035183;28;20437;-75
2022/01/19 02:09:35;;;;;;;8.10;2.77;;;;;;;0.52;100.00;97824.84;5051529;28;20925;-75
2022/01/19 02:25:52;;;;;;;2.23;2.00;;;;;;;0.36;100.00;97789.09;5051089;28;20862;-74
2022/01/19 02:41:51;;;;;;;2.30;2.10;;;;;;;0.33;100.00;97767.94;5051372;28;20421;-75
2022/01/19 02:49:47;;;;;;;3.40;3.10;;;;;;;0.45;100.00;97785.16;5050646;28;20444;-74
2022/01/19 02:52:14;;;;;;;2.33;2.13;;;;;;;0.29;100.00;97778.81;5050538;28;20480;-75
2022/01/19 02:54:40;;;;;;;2.47;2.33;;;;;;;-0.03;100.00;97736.66;5050721;28;20473;-74
2022/01/19 02:57:10;;;;;;;3.03;2.67;;;;;;;0.06;100.00;97742.34;5050621;28;20556;-74
2022/01/19 03:10:26;;;;;;;8.73;3.40;;;;;;;0.37;100.00;97769.06;5050286;28;20477;-74
2022/01/19 03:12:52;;;;;;;3.80;3.10;;;;;;;0.02;100.00;97740.44;5050518;28;20449;-76
2022/01/19 03:15:19;;;;;;;5.57;3.70;;;;;;;0.18;100.00;97745.75;5033793;28;20440;-75
2022/01/19 03:17:46;;;;;;;2.23;2.13;;;;;;;0.27;100.00;97743.63;5033763;28;20471;-75
2022/01/19 03:20:13;;;;;;;3.07;2.70;;;;;;;0.12;100.00;97740.66;5050616;28;20552;-75
2022/01/19 03:22:45;;;;;;;2.97;2.63;;;;;;;0.04;100.00;97715.00;5033780;28;20437;-75
2022/01/19 03:25:12;;;;;;;4.13;2.70;;;;;;;0.17;100.00;97733.00;5033869;28;20441;-75
2022/01/19 03:27:40;;;;;;;2.33;2.17;;;;;;;0.09;100.00;97731.50;5033742;28;20484;-75
2022/01/19 03:30:08;;;;;;;3.03;2.83;;;;;;;-0.09;100.00;97703.78;5033781;28;20468;-75
2022/01/19 03:32:35;;;;;;;3.10;2.90;;;;;;;-0.27;100.00;97664.88;5033594;28;20495;-75
2022/01/19 03:35:02;;;;;;;2.97;2.57;;;;;;;0.20;100.00;97719.53;5050002;28;20865;-75
2022/01/19 03:37:29;;;;;;;2.73;2.53;;;;;;;0.14;100.00;97695.22;5049941;28;20457;-74
2022/01/19 03:39:56;;;;;;;3.10;2.90;;;;;;;0.28;100.00;97724.41;5050214;28;20449;-75
2022/01/19 03:42:25;;;;;;;3.17;2.97;;;;;;;0.19;100.00;97723.16;5033620;28;20487;-75
2022/01/19 03:44:51;;;;;;;3.80;3.50;;;;;;;0.27;100.00;97725.44;5050123;28;20433;-75
2022/01/19 03:47:18;;;;;;;2.93;2.40;;;;;;;0.10;100.00;97695.88;5050133;28;20855;-75
2022/01/19 03:49:45;;;;;;;2.70;2.50;;;;;;;0.12;100.00;97710.25;5033290;28;20465;-75
2022/01/19 03:52:12;;;;;;;2.20;1.90;;;;;;;0.13;100.00;97711.81;5033532;28;20445;-75
2022/01/19 03:54:42;;;;;;;3.90;3.60;;;;;;;0.20;100.00;97717.72;5054086;28;20449;-75
2022/01/19 03:57:10;;;;;;;5.30;2.70;;;;;;;0.21;100.00;97724.50;5053892;28;20510;-74
2022/01/19 03:59:38;;;;;;;6.90;4.43;;;;;;;0.09;100.00;97715.09;5053907;28;20495;-75
2022/01/19 04:02:06;;;;;;;6.60;5.30;;;;;;;-0.03;100.00;97702.09;5053729;28;20479;-74
2022/01/19 04:07:26;;;;;;;3.70;3.40;;;;;;;0.11;100.00;97716.47;5053552;28;20452;-75
2022/01/19 04:09:53;;;;;;;3.10;2.90;;;;;;;-0.13;100.00;97671.47;5037122;28;20493;-74
2022/01/19 04:12:35;;;;;;;4.07;3.60;;;;;;;0.01;100.00;97681.66;5053575;28;20448;-75
2022/01/19 04:15:02;;;;;;;3.20;3.00;;;;;;;0.00;100.00;97665.28;5053587;28;20490;-75
2022/01/19 04:17:29;;;;;;;3.33;3.03;;;;;;;0.13;100.00;97696.22;5053359;28;20453;-75
2022/01/19 04:19:56;;;;;;;3.93;3.60;;;;;;;-0.10;100.00;97672.81;5053337;28;20437;-74
2022/01/19 04:22:25;;;;;;;4.30;3.90;;;;;;;-0.81;100.00;97586.16;5053221;28;20445;-75
2022/01/19 04:24:58;;;;;;;3.40;3.20;;;;;;;-0.10;100.00;97686.59;5053552;28;20443;-74
2022/01/19 04:32:47;;;;;;;4.13;3.60;;;;;;;0.03;100.00;97670.00;5053273;28;20437;-75
2022/01/19 04:35:19;;;;;;;4.07;3.77;;;;;;;-0.52;100.00;97614.91;5052966;28;20432;-75
2022/01/19 05:07:42;;;;;;;4.60;4.20;;;;;;;-0.46;100.00;97625.19;5052400;28;20496;-74
2022/01/19 05:15:41;;;;;;;4.30;4.00;;;;;;;-0.22;100.00;97638.22;5052372;28;20441;-74
2022/01/19 05:18:11;;;;;;;4.90;4.50;;;;;;;-0.34;100.00;97638.22;5035957;28;20473;-74
2022/01/19 05:20:38;;;;;;;5.40;4.90;;;;;;;-0.48;100.00;97627.22;5035734;28;20536;-75
2022/01/19 05:23:05;;;;;;;4.40;4.10;;;;;;;-0.44;100.00;97632.75;5035606;28;20816;-75
2022/01/19 05:25:33;;;;;;;5.70;5.30;;;;;;;-0.79;100.00;97583.34;5036320;28;20487;-75
2022/01/19 05:28:11;;;;;;;5.63;5.20;;;;;;;-0.46;100.00;97627.00;5051773;28;20469;-74
2022/01/19 05:30:38;;;;;;;7.07;6.47;;;;;;;-0.46;100.00;97614.00;5051845;28;21044;-74
2022/01/19 05:33:04;;;;;;;6.93;6.33;;;;;;;-0.43;100.00;97608.38;5051858;28;20445;-74
2022/01/19 05:35:32;;;;;;;6.43;5.90;;;;;;;-0.62;100.00;97553.91;5035468;28;20442;-75
2022/01/19 05:38:17;;;;;;;6.23;5.73;;;;;;;-0.20;100.00;97616.19;5053401;28;20542;-74
2022/01/19 05:40:55;;;;;;;13.50;10.23;;;;;;;-0.36;100.00;97588.28;5051767;28;20441;-74
2022/01/19 05:43:22;;;;;;;7.00;6.40;;;;;;;-0.24;100.00;97585.69;5051754;28;20487;-74
2022/01/19 05:45:49;;;;;;;10.07;8.80;;;;;;;-0.41;100.00;97572.56;5051694;28;20560;-74
2022/01/19 05:48:19;;;;;;;6.37;5.80;;;;;;;-0.22;100.00;97599.25;5051735;28;20503;-74
2022/01/19 05:50:50;;;;;;;6.67;6.07;;;;;;;-0.47;100.00;97570.88;5051550;28;20429;-74
2022/01/19 05:53:21;;;;;;;6.33;5.83;;;;;;;-0.52;100.00;97573.38;5051792;28;20506;-74
2022/01/19 05:55:47;;;;;;;7.07;6.40;;;;;;;-0.41;100.00;97590.75;5051388;28;20437;-74
2022/01/19 05:58:14;;;;;;;6.80;6.20;;;;;;;-0.44;100.00;97586.78;5034818;28;20457;-74
2022/01/19 06:00:42;;;;;;;6.97;6.30;;;;;;;-0.66;100.00;97560.59;5051392;28;20445;-73
2022/01/19 06:03:10;;;;;;;6.30;5.60;;;;;;;-0.80;100.00;97550.59;5034888;28;20453;-73
2022/01/19 06:05:57;;;;;;;6.57;5.97;;;;;;;-0.56;100.00;97592.97;5040902;28;20444;-74
2022/01/19 06:08:42;;;;;;;6.00;5.60;;;;;;;-0.68;100.00;97561.78;5051094;28;20553;-74
2022/01/19 06:11:11;;;;;;;6.50;5.80;;;;;;;-0.56;100.00;97580.00;5034859;28;20437;-74
2022/01/19 06:13:39;;;;;;;5.20;4.80;;;;;;;-0.60;100.00;97569.28;5051040;28;20459;-74
2022/01/19 06:16:06;;;;;;;6.03;5.50;;;;;;;-0.76;100.00;97562.94;5052425;28;20944;-74
2022/01/19 06:18:34;;;;;;;5.17;4.67;;;;;;;-0.81;100.00;97552.41;5034519;28;20477;-74
2022/01/19 06:21:02;;;;;;;6.20;5.70;;;;;;;-0.82;100.00;97540.44;5034687;28;20975;-74
2022/01/19 06:23:36;;;;;;;4.97;4.57;;;;;;;-0.72;100.00;97547.69;5035243;28;20533;-74
2022/01/19 06:26:06;;;;;;;5.37;4.87;;;;;;;-0.62;100.00;97560.91;5034824;28;20479;-74
2022/01/19 06:28:35;;;;;;;5.90;5.40;;;;;;;-0.58;100.00;97569.03;5050718;28;20490;-75
2022/01/19 06:31:02;;;;;;;6.30;5.67;;;;;;;-0.94;100.00;97530.03;5050835;28;20449;-74
2022/01/19 06:33:30;;;;;;;6.17;5.63;;;;;;;-0.94;100.00;97518.84;5034545;28;20437;-74
2022/01/19 06:35:57;;;;;;;6.70;5.50;;;;;;;-0.75;100.00;97533.34;5050647;28;20866;-74
2022/01/19 06:38:47;;;;;;;5.80;5.23;;;;;;;-0.67;100.00;97546.03;5050876;28;20445;-74
2022/01/19 06:41:42;;;;;;;5.13;4.73;;;;;;;-0.69;100.00;97539.44;5047493;28;21015;-74
2022/01/19 06:44:09;;;;;;;9.20;5.80;;;;;;;-0.72;100.00;97526.91;5050671;28;20498;-74
2022/01/19 06:46:36;;;;;;;5.97;5.43;;;;;;;-0.65;100.00;97528.41;5051836;28;20809;-75
2022/01/19 06:49:03;;;;;;;5.83;5.23;;;;;;;-0.87;100.00;97470.25;5033901;28;20461;-74
2022/01/19 06:51:32;;;;;;;6.30;5.80;;;;;;;-0.47;100.00;97534.50;5050390;28;20445;-74
2022/01/19 06:54:01;;;;;;;6.07;5.50;;;;;;;-0.65;100.00;97512.81;5034272;28;20875;-74
2022/01/19 06:56:37;;;;;;;6.07;4.93;;;;;;;-0.76;100.00;97503.22;5050441;28;20448;-74
2022/01/19 06:59:22;;;;;;;5.43;4.93;;;;;;;-0.81;100.00;97507.47;5050511;28;20433;-74
2022/01/19 07:02:04;;;;;;;11.50;8.50;;;;;;;-0.70;100.00;97504.91;5035706;28;20541;-74
2022/01/19 07:05:00;;;;;;;6.53;5.93;;;;;;;-0.63;100.00;97517.78;5046439;28;20449;-74
2022/01/19 07:07:37;;;;;;;8.83;7.93;;;;;;;-0.55;100.00;97519.25;5034984;28;20529;-74
2022/01/19 07:10:05;;;;;;;14.83;13.33;;;;;;;-0.60;100.00;97515.53;5050268;28;21042;-74
2022/01/19 07:12:32;;;;;;;9.97;6.67;;;;;;;-0.75;100.00;97501.41;5050278;28;20453;-74
2022/01/19 07:15:01;;;;;;;6.70;6.20;;;;;;;-0.62;100.00;97514.19;5050051;28;20441;-74
2022/01/19 07:17:28;;;;;;;8.93;5.37;;;;;;;-0.78;100.00;97492.28;5033651;28;20468;-74
2022/01/19 07:19:55;;;;;;;5.20;4.70;;;;;;;-0.52;100.00;97503.22;5050043;28;20443;-74
2022/01/19 07:22:22;;;;;;;6.63;5.90;;;;;;;-0.84;100.00;97479.38;5033672;28;20437;-74
2022/01/19 07:24:56;;;;;;;8.50;7.73;;;;;;;-0.54;100.00;97519.00;5049968;28;20461;-74
2022/01/19 07:27:23;;;;;;;9.10;7.40;;;;;;;-0.56;100.00;97518.47;5050761;28;20453;-74
2022/01/19 07:29:50;;;;;;;7.73;7.00;;;;;;;-0.49;100.00;97505.38;5033533;28;20514;-74
2022/01/19 07:32:16;;;;;;;8.93;7.27;;;;;;;-0.52;100.00;97498.03;5033563;28;20433;-74
2022/01/19 07:34:45;;;;;;;10.30;9.20;;;;;;;-0.41;100.00;97512.81;5050060;28;20468;-74
2022/01/19 07:37:15;;;;;;;8.93;7.57;;;;;;;-0.49;100.00;97507.97;5034194;28;20472;-74
2022/01/19 07:39:42;;;;;;;10.30;9.30;;;;;;;-0.55;100.00;97495.88;5033590;28;20437;-74
2022/01/19 07:42:08;;;;;;;10.83;8.80;;;;;;;-0.48;100.00;97488.78;5049797;28;20437;-74
2022/01/19 07:45:07;;;;;;;8.13;7.43;;;;;;;-0.65;100.00;97466.09;5048766;28;20548;-74
2022/01/19 07:47:53;;;;;;;11.00;9.40;;;;;;;-0.35;100.00;97501.53;5051144;28;20830;-74
2022/01/19 07:50:55;;;;;;;8.97;8.13;;;;;;;-0.55;100.00;97475.09;5044171;28;20799;-74
2022/01/19 07:53:40;;;;;;;13.23;9.10;;;;;;;-0.52;100.00;97491.03;5035788;28;20437;-74
2022/01/19 07:56:15;;;;;;;11.17;10.00;;;;;;;-0.68;100.00;97460.53;5034934;28;20432;-74
2022/01/19 07:59:01;;;;;;;11.70;9.00;;;;;;;-0.76;100.00;97429.72;5051366;28;20408;-74
2022/01/19 08:01:41;;;;;;;15.70;10.30;;;;;;;-0.45;100.00;97470.13;5035170;28;20488;-74
2022/01/19 08:04:26;;;;;;;28.17;14.90;;;;;;;-0.36;100.00;97473.97;5051295;28;20421;-74
2022/01/19 08:06:54;;;;;;;15.60;13.30;;;;;;;-0.44;100.00;97466.50;5049638;28;20518;-74
2022/01/19 08:09:22;;;;;;;23.43;16.20;;;;;;;-0.38;100.00;97473.41;5049949;28;20548;-74
2022/01/19 08:11:49;;;;;;;17.90;13.83;;;;;;;-0.24;100.00;97473.97;5049544;28;20886;-74
2022/01/19 08:14:26;;;;;;;28.70;17.40;;;;;;;-0.37;100.00;97449.00;5049988;28;20452;-74
2022/01/19 08:16:57;;;;;;;24.37;15.23;;;;;;;-0.40;100.00;97449.44;5049782;28;20514;-74
2022/01/19 08:19:27;;;;;;;12.73;10.17;;;;;;;-0.21;100.00;97447.50;5033798;28;20443;-74
2022/01/19 08:21:54;;;;;;;11.63;9.13;;;;;;;-0.42;100.00;97438.50;5032951;28;20444;-75
2022/01/19 08:24:21;;;;;;;11.10;8.90;;;;;;;-0.45;100.00;97426.75;5049459;28;20476;-75
2022/01/19 08:26:50;;;;;;;12.13;10.87;;;;;;;-0.13;100.00;97453.16;5049459;28;20468;-74
2022/01/19 08:29:22;;;;;;;9.93;9.00;;;;;;;-0.19;100.00;97438.47;5033744;28;20547;-74
2022/01/19 08:31:53;;;;;;;16.03;10.10;;;;;;;-0.46;100.00;97395.81;5033623;28;20448;-74
2022/01/19 08:34:39;;;;;;;11.87;9.40;;;;;;;-0.28;100.00;97418.25;5049398;28;20506;-75
2022/01/19 08:37:24;;;;;;;10.73;9.73;;;;;;;-0.10;100.00;97438.91;5050095;28;20460;-74
2022/01/19 08:39:59;;;;;;;12.60;10.07;;;;;;;-0.27;100.00;97406.84;5050389;28;20460;-74
2022/01/19 08:42:26;;;;;;;11.83;9.90;;;;;;;-0.07;100.00;97428.81;5053205;28;20444;-74
2022/01/19 08:44:53;;;;;;;12.33;10.80;;;;;;;-0.02;100.00;97428.91;5052985;28;20445;-74
2022/01/19 08:47:24;;;;;;;15.60;11.27;;;;;;;-0.70;100.00;97322.34;5036651;28;20507;-74
2022/01/19 08:50:08;;;;;;;16.33;11.03;;;;;;;-0.12;100.00;97396.75;5052761;28;20465;-74
2022/01/19 08:52:47;;;;;;;13.67;10.17;;;;;;;-0.20;100.00;97390.09;5052869;28;20449;-74
2022/01/19 08:55:25;;;;;;;13.60;9.90;;;;;;;0.00;100.00;97381.91;5052691;28;20951;-74
2022/01/19 08:57:52;;;;;;;11.50;9.20;;;;;;;-0.01;100.00;97378.50;5036081;28;20467;-74
2022/01/19 09:00:20;;;;;;;11.73;9.50;;;;;;;-0.18;100.00;97379.47;5052594;28;20507;-74
2022/01/19 09:02:47;;;;;;;13.60;10.30;;;;;;;-0.11;100.00;97357.56;5035895;28;20982;-74
2022/01/19 09:05:14;;;;;;;14.80;8.80;;;;;;;0.00;100.00;97358.53;5053990;28;21262;-74
2022/01/19 09:07:41;;;;;;;10.13;8.70;;;;;;;0.11;100.00;97382.88;5053954;28;20449;-74
2022/01/19 09:10:10;;;;;;;9.60;8.40;;;;;;;0.08;100.00;97375.53;5035872;28;20457;-74
2022/01/19 09:12:38;;;;;;;13.87;10.20;;;;;;;-0.21;100.00;97354.75;5052477;28;21237;-74
2022/01/19 09:15:07;;;;;;;11.07;9.23;;;;;;;0.19;100.00;97395.50;5052461;28;20452;-74
2022/01/19 09:17:34;;;;;;;17.33;9.43;;;;;;;0.09;100.00;97362.31;5052274;28;20484;-74
2022/01/19 09:20:05;;;;;;;10.37;9.20;;;;;;;0.14;100.00;97364.22;5052184;28;20500;-74
2022/01/19 09:22:32;;;;;;;11.90;9.00;;;;;;;0.29;100.00;97361.88;5035788;28;20438;-74
2022/01/19 09:25:00;;;;;;;9.03;8.03;;;;;;;0.09;100.00;97348.53;5052293;28;20421;-74
2022/01/19 09:27:27;;;;;;;8.80;7.10;;;;;;;0.27;100.00;97346.53;5052771;28;20528;-74
2022/01/19 09:29:54;;;;;;;10.20;8.70;;;;;;;0.15;100.00;97304.19;5052054;28;20508;-75
2022/01/19 09:32:21;;;;;;;10.63;6.83;;;;;;;0.09;100.00;97312.91;5052084;28;20813;-74
2022/01/19 09:34:54;;;;;;;9.10;8.20;;;;;;;0.27;100.00;97335.34;5035467;28;20437;-74
2022/01/19 09:37:22;;;;;;;7.73;6.40;;;;;;;0.44;100.00;97327.53;5051887;28;20469;-74
2022/01/19 09:39:49;;;;;;;11.00;7.40;;;;;;;0.53;100.00;97345.09;5051878;28;20437;-74
2022/01/19 09:42:16;;;;;;;11.30;7.40;;;;;;;0.46;100.00;97336.69;5053244;28;20493;-74
2022/01/19 09:44:43;;;;;;;9.83;7.80;;;;;;;0.44;100.00;97317.91;5052220;28;20433;-74
2022/01/19 09:47:09;;;;;;;6.57;5.87;;;;;;;0.08;100.00;97307.94;5051730;28;20445;-74
2022/01/19 09:49:36;;;;;;;9.57;6.60;;;;;;;0.27;100.00;97309.31;5051694;28;20547;-74
2022/01/19 09:52:03;;;;;;;12.93;6.63;;;;;;;0.65;100.00;97342.41;5051131;28;20449;-74
2022/01/19 09:54:30;;;;;;;12.80;6.70;;;;;;;0.80;100.00;97341.84;5051756;28;20441;-74
2022/01/19 09:56:58;;;;;;;8.13;7.33;;;;;;;0.79;100.00;97335.06;5051457;28;20519;-74
2022/01/19 09:59:25;;;;;;;9.80;7.97;;;;;;;0.66;100.00;97304.97;5034997;28;20944;-74
2022/01/19 10:01:54;;;;;;;11.53;6.70;;;;;;;0.36;100.00;97232.47;5051593;28;20775;-74
2022/01/19 10:04:30;;;;;;;9.50;6.67;;;;;;;0.88;100.00;97342.25;5051910;28;20967;-74
2022/01/19 10:07:10;;;;;;;10.80;8.20;;;;;;;0.87;100.00;97327.66;5052739;28;20452;-74
2022/01/19 10:09:52;;;;;;;9.07;7.80;;;;;;;0.83;100.00;97316.16;5052624;28;20496;-74
2022/01/19 10:18:17;;;;;;;10.67;7.83;;;;;;;0.76;100.00;97302.50;5050991;28;20489;-74
2022/01/19 10:20:47;;;;;;;8.70;6.97;;;;;;;0.55;100.00;97278.03;5051047;28;20540;-74
2022/01/19 10:23:38;;;;;;;9.47;7.30;;;;;;;0.86;100.00;97304.47;5051219;28;20488;-74
2022/01/19 10:26:10;;;;;;;10.03;6.70;;;;;;;0.82;100.00;97269.56;5050955;28;20846;-74
2022/01/19 10:29:13;;;;;;;16.33;10.30;;;;;;;1.08;100.00;97296.72;5050889;28;20465;-74
2022/01/19 10:31:40;;;;;;;11.37;8.40;;;;;;;0.99;100.00;97267.69;4997093;28;20929;-75
2022/01/19 10:34:18;;;;;;;10.90;5.40;;;;;;;1.27;100.00;97284.94;5043157;28;20437;-74
2022/01/19 10:36:56;;;;;;;7.47;6.07;;;;;;;1.23;100.00;97257.81;5050735;28;21074;-74
2022/01/19 10:39:25;;;;;;;7.17;6.30;;;;;;;1.54;100.00;97277.19;5050718;28;20429;-74
2022/01/19 10:42:08;;;;;;;6.47;4.90;;;;;;;1.39;100.00;97259.56;5034360;28;20480;-74
2022/01/19 10:44:45;;;;;;;7.70;5.63;;;;;;;1.31;100.00;97252.16;5050731;28;20433;-74
2022/01/19 10:47:38;;;;;;;6.57;4.93;;;;;;;1.51;100.00;97258.66;5036637;28;20461;-74
2022/01/19 10:50:05;;;;;;;9.10;4.90;;;;;;;1.21;100.00;97230.47;5050537;28;20519;-74
2022/01/19 10:52:39;;;;;;;6.13;5.10;;;;;;;1.38;100.00;97254.59;5050734;28;20448;-74
2022/01/19 10:55:09;;;;;;;5.47;4.97;;;;;;;1.45;100.00;97244.75;5051277;28;20433;-74
2022/01/19 10:57:38;;;;;;;9.50;5.27;;;;;;;1.62;100.00;97249.91;5050331;28;20564;-74
2022/01/19 11:00:22;;;;;;;5.60;3.80;;;;;;;1.60;100.00;97246.72;5051814;28;20508;-74
2022/01/19 11:02:52;;;;;;;5.63;5.10;;;;;;;1.67;100.00;97242.91;5033100;28;20952;-74
2022/01/19 11:05:44;;;;;;;7.53;4.93;;;;;;;1.50;100.00;97212.78;5050318;28;20441;-74
2022/01/19 11:08:12;;;;;;;9.23;5.10;;;;;;;1.65;100.00;97215.53;5050408;28;20461;-74
2022/01/19 11:10:39;;;;;;;6.50;4.93;;;;;;;1.73;100.00;97241.13;5051522;28;20548;-74
2022/01/19 11:13:13;;;;;;;8.50;4.90;;;;;;;1.48;100.00;97205.22;5050212;28;20537;-74
2022/01/19 11:15:43;;;;;;;7.70;5.03;;;;;;;1.42;100.00;97216.59;5033940;28;20464;-74
2022/01/19 11:18:09;;;;;;;5.97;5.10;;;;;;;1.47;100.00;97216.66;5033643;28;20464;-74
2022/01/19 11:20:44;;;;;;;9.73;4.97;;;;;;;1.48;100.00;97211.22;5050140;28;20849;-74
2022/01/19 11:23:20;;;;;;;6.43;4.73;;;;;;;1.56;100.00;97215.19;5050339;28;20833;-74
2022/01/19 11:26:07;;;;;;;6.90;4.80;;;;;;;1.59;100.00;97201.66;5050042;28;20524;-74
2022/01/19 11:28:46;;;;;;;11.87;5.63;;;;;;;1.50;100.00;97189.31;5051206;28;20967;-74
2022/01/19 11:31:15;;;;;;;5.60;5.10;;;;;;;1.54;100.00;97172.94;5051334;28;20484;-74
2022/01/19 11:33:56;;;;;;;7.70;6.00;;;;;;;1.60;100.00;97173.75;5050002;28;20515;-74
2022/01/19 11:36:33;;;;;;;6.77;4.70;;;;;;;1.56;100.00;97168.28;5050027;28;20452;-74
2022/01/19 11:39:20;;;;;;;9.17;5.60;;;;;;;1.55;100.00;97161.50;5049928;28;20532;-74
2022/01/19 11:41:47;;;;;;;9.47;5.13;;;;;;;1.53;100.00;97162.78;5051750;28;20421;-74
2022/01/19 11:44:16;;;;;;;9.10;6.10;;;;;;;1.61;100.00;97160.50;5051082;28;20512;-74
2022/01/19 11:46:48;;;;;;;8.57;6.30;;;;;;;1.58;100.00;97158.38;5050368;28;20457;-74
2022/01/19 11:49:37;;;;;;;7.60;5.70;;;;;;;1.55;100.00;97153.66;5051534;28;20425;-74
2022/01/19 11:52:04;;;;;;;11.37;6.37;;;;;;;1.34;100.00;97131.88;5050230;28;20850;-74
2022/01/19 11:54:35;;;;;;;9.77;6.33;;;;;;;1.42;100.00;97117.59;5050234;28;20433;-74
2022/01/19 11:57:07;;;;;;;7.57;6.47;;;;;;;1.64;100.00;97144.38;5033469;28;20509;-74
2022/01/19 11:59:34;;;;;;;17.43;8.67;;;;;;;1.63;100.00;97132.38;5049875;28;20430;-74
2022/01/19 12:02:28;;;;;;;9.63;6.87;;;;;;;1.61;100.00;97131.84;5051384;28;20441;-75
2022/01/19 12:05:20;;;;;;;11.10;8.57;;;;;;;1.46;100.00;97103.81;5049891;28;20818;-74
2022/01/19 12:07:52;;;;;;;13.80;9.03;;;;;;;1.75;100.00;97124.41;5051241;28;20838;-74
2022/01/19 12:10:43;;;;;;;26.30;9.73;;;;;;;1.75;100.00;97127.00;5049848;28;20514;-74
2022/01/19 12:18:58;;;;;;;9.70;8.53;;;;;;;1.41;100.00;97072.53;5052589;28;20488;-74
2022/01/19 12:21:54;;;;;;;20.10;11.50;;;;;;;1.64;100.00;97104.50;5037297;28;20881;-74
2022/01/19 12:24:41;;;;;;;8.53;4.80;;;;;;;1.51;100.00;97097.09;5054392;28;20484;-74
2022/01/19 12:27:15;;;;;;;9.87;6.77;;;;;;;1.52;100.00;97096.06;5037124;28;20461;-74
2022/01/19 12:29:57;;;;;;;8.70;4.70;;;;;;;1.51;100.00;97084.06;5054766;28;20429;-74
2022/01/19 12:32:24;;;;;;;15.90;13.50;;;;;;;1.58;100.00;97077.59;5036803;28;20439;-74
2022/01/19 12:35:07;;;;;;;9.07;6.27;;;;;;;1.57;100.00;97068.22;5054431;28;20862;-74
2022/01/19 12:37:33;;;;;;;7.83;6.23;;;;;;;1.54;100.00;97080.97;5036541;28;21055;-74
2022/01/19 12:40:12;;;;;;;10.03;4.47;;;;;;;1.40;100.00;97064.97;5052994;28;20473;-74
2022/01/19 12:42:44;;;;;;;8.27;4.50;;;;;;;1.35;100.00;97063.13;5052954;28;20535;-74
2022/01/19 12:45:17;;;;;;;12.70;6.67;;;;;;;1.37;100.00;97055.03;5053055;28;20866;-74
2022/01/19 12:47:49;;;;;;;6.00;5.27;;;;;;;1.32;100.00;97049.78;5052899;28;20457;-74
2022/01/19 12:50:16;;;;;;;10.20;5.60;;;;;;;1.29;100.00;97029.44;5036306;28;20544;-74
2022/01/19 12:52:42;;;;;;;14.77;9.10;;;;;;;1.34;100.00;97017.25;5052769;28;20541;-74
2022/01/19 12:55:18;;;;;;;7.57;6.57;;;;;;;1.30;100.00;96997.16;5052661;28;20532;-74
2022/01/19 12:57:46;;;;;;;9.00;5.73;;;;;;;1.42;100.00;97018.59;5052819;28;20896;-74
2022/01/19 13:00:19;;;;;;;6.80;5.70;;;;;;;1.30;100.00;96991.94;5036054;28;20465;-74
2022/01/19 13:02:46;;;;;;;6.33;5.43;;;;;;;1.41;100.00;97010.00;5053850;28;20506;-74
2022/01/19 13:05:18;;;;;;;5.80;4.30;;;;;;;1.28;100.00;97018.25;5053880;28;20425;-74
2022/01/19 13:07:52;;;;;;;14.30;7.37;;;;;;;1.29;100.00;97009.41;5035972;28;20890;-74
2022/01/19 13:10:49;;;;;;;12.27;7.50;;;;;;;1.22;100.00;97014.03;5052440;28;20460;-74
2022/01/19 13:13:29;;;;;;;8.47;5.60;;;;;;;1.12;100.00;96998.34;5053772;28;20418;-74
2022/01/19 13:16:00;;;;;;;6.23;5.60;;;;;;;1.18;100.00;97000.72;5052404;28;20468;-75
2022/01/19 13:18:30;;;;;;;14.23;6.20;;;;;;;1.08;100.00;96998.06;5052547;28;20526;-74
2022/01/19 13:21:03;;;;;;;6.13;5.30;;;;;;;0.67;100.00;96967.47;5052323;28;20847;-74
2022/01/19 13:23:36;;;;;;;8.43;6.80;;;;;;;0.70;100.00;96987.81;5035715;28;20920;-74
2022/01/19 13:26:06;;;;;;;10.97;7.87;;;;;;;0.62;100.00;96978.63;5051363;28;20457;-74
2022/01/19 13:28:34;;;;;;;12.70;6.97;;;;;;;0.43;100.00;96970.41;5035595;28;20457;-74
2022/01/19 13:31:21;;;;;;;9.70;6.17;;;;;;;0.61;100.00;96979.66;5053332;28;20892;-74
2022/01/19 13:33:59;;;;;;;12.20;8.00;;;;;;;0.81;100.00;96974.66;5035647;28;20490;-75